Time;durP1;ratioP1;P1;durP2;ratioP2;P2;SDS_P1;SDS_P2;PMS_P1;PMS_P2;Temp;Humidity;BMP_temperature;BMP_pressure;BME280_temperature;BME280_humidity;BME280_pressure;Samples;Min_cycle;Max_cycle;Signal;HPM_P1;HPM_P2
2022/09/21 00:02:39;;;;;;;6.72;3.10;;;10.30;73.10;;;;;;9180143;19;20097;-68
2022/09/21 00:05:43;;;;;;;6.70;2.92;;;10.30;73.20;;;;;;9186477;19;20078;-67
2022/09/21 00:08:48;;;;;;;12.25;3.25;;;10.30;73.20;;;;;;9184438;19;20040;-68
2022/09/21 00:11:53;;;;;;;7.35;3.15;;;10.20;73.20;;;;;;9185316;19;20030;-67
2022/09/21 00:15:03;;;;;;;5.43;2.70;;;10.20;73.20;;;;;;9184258;19;20014;-67
2022/09/21 00:18:07;;;;;;;5.55;3.20;;;10.20;73.20;;;;;;9185831;19;20511;-69
2022/09/21 00:21:12;;;;;;;10.63;2.83;;;10.20;73.20;;;;;;9185415;19;20340;-68
2022/09/21 00:24:16;;;;;;;6.20;2.97;;;10.20;73.30;;;;;;9184134;19;20029;-67
2022/09/21 00:27:19;;;;;;;7.03;3.33;;;10.10;73.90;;;;;;9185813;19;20128;-69
2022/09/21 00:30:25;;;;;;;3.70;2.42;;;10.10;73.30;;;;;;9185674;19;20038;-69
2022/09/21 00:33:28;;;;;;;4.57;2.25;;;10.10;73.30;;;;;;9181458;19;20495;-67
2022/09/21 00:36:32;;;;;;;3.70;2.10;;;10.00;73.30;;;;;;9185099;19;20041;-67
2022/09/21 00:39:36;;;;;;;3.13;1.80;;;10.00;73.30;;;;;;9183677;19;20014;-66
2022/09/21 00:42:40;;;;;;;3.97;2.40;;;10.00;73.30;;;;;;9184512;19;20098;-68
2022/09/21 00:45:47;;;;;;;;;;;9.90;73.30;;;;;;9185133;19;20090;-68
2022/09/21 00:48:51;;;;;;;4.28;1.90;;;9.90;73.40;;;;;;9184642;19;19922;-68
2022/09/21 00:51:56;;;;;;;4.65;2.20;;;9.90;73.30;;;;;;9182953;19;20495;-66
2022/09/21 00:55:05;;;;;;;4.75;2.00;;;9.80;73.30;;;;;;9184006;19;20044;-68
2022/09/21 00:58:14;;;;;;;6.93;1.77;;;9.80;73.40;;;;;;9184037;19;20015;-68
2022/09/21 01:01:21;;;;;;;4.60;2.45;;;9.80;73.40;;;;;;9179709;19;20084;-68
2022/09/21 01:04:27;;;;;;;5.43;2.13;;;9.80;73.50;;;;;;9181907;19;20029;-67
2022/09/21 01:07:34;;;;;;;3.05;2.17;;;9.70;73.40;;;;;;9183877;19;20014;-68
2022/09/21 01:10:52;;;;;;;6.82;2.17;;;9.70;73.40;;;;;;9181651;19;20015;-67
2022/09/21 01:14:21;;;;;;;13.52;3.03;;;9.70;74.10;;;;;;9183168;19;20028;-68
2022/09/21 01:17:35;;;;;;;3.55;2.00;;;9.60;73.60;;;;;;9182609;19;20015;-69
2022/09/21 01:21:03;;;;;;;6.50;2.45;;;9.60;73.60;;;;;;9182450;19;20015;-68
2022/09/21 01:24:21;;;;;;;3.67;2.42;;;9.60;73.60;;;;;;9183604;19;20026;-67
2022/09/21 01:27:42;;;;;;;6.50;2.30;;;9.50;73.60;;;;;;9183315;19;20014;-68
2022/09/21 01:30:50;;;;;;;6.35;2.30;;;9.50;73.60;;;;;;9180672;19;20086;-68
2022/09/21 01:33:58;;;;;;;5.90;2.40;;;9.50;73.60;;;;;;9182995;19;20028;-67
2022/09/21 01:37:09;;;;;;;4.25;2.38;;;9.40;73.60;;;;;;9182505;19;20035;-68
2022/09/21 01:40:18;;;;;;;5.70;2.35;;;9.40;73.60;;;;;;9183788;19;20006;-68
2022/09/21 01:43:25;;;;;;;5.80;2.35;;;9.40;73.60;;;;;;9181130;19;20460;-68
2022/09/21 01:46:33;;;;;;;4.68;3.10;;;9.30;73.60;;;;;;9180116;19;20113;-68
2022/09/21 01:49:41;;;;;;;4.55;2.88;;;9.30;73.70;;;;;;9179597;19;20014;-67
2022/09/21 01:52:49;;;;;;;4.18;2.40;;;9.30;73.70;;;;;;9179425;19;20535;-68
2022/09/21 01:55:57;;;;;;;3.80;2.28;;;9.20;73.70;;;;;;9181717;19;20055;-67
2022/09/21 01:59:09;;;;;;;4.15;2.70;;;9.20;73.70;;;;;;9181332;19;20394;-67
2022/09/21 02:02:19;;;;;;;4.72;2.50;;;9.20;73.80;;;;;;9176896;19;20022;-68
2022/09/21 02:05:26;;;;;;;3.33;2.40;;;9.10;73.70;;;;;;9180837;19;20011;-67
2022/09/21 02:08:32;;;;;;;3.53;2.03;;;9.10;73.80;;;;;;9179675;19;20042;-68
2022/09/21 02:11:37;;;;;;;6.80;1.95;;;9.10;73.80;;;;;;9180363;19;20074;-68
2022/09/21 02:14:41;;;;;;;4.93;2.40;;;9.10;73.80;;;;;;9178853;19;20515;-67
2022/09/21 02:17:57;;;;;;;4.28;2.05;;;9.10;73.80;;;;;;9181274;19;20022;-67
2022/09/21 02:21:05;;;;;;;3.08;2.28;;;9.00;73.80;;;;;;9180814;19;20022;-67
2022/09/21 02:24:14;;;;;;;2.40;2.03;;;9.00;73.90;;;;;;9180401;19;20341;-68
2022/09/21 02:27:27;;;;;;;4.60;2.10;;;8.90;73.80;;;;;;9178234;19;20022;-67
2022/09/21 02:30:33;;;;;;;5.85;2.65;;;8.90;73.90;;;;;;9180284;19;20582;-66
2022/09/21 02:33:49;;;;;;;5.57;2.58;;;8.90;73.90;;;;;;9176348;19;20034;-67
2022/09/21 02:36:57;;;;;;;5.15;2.13;;;8.90;74.00;;;;;;9180918;19;20479;-68
2022/09/21 02:40:08;;;;;;;4.32;2.35;;;8.90;74.00;;;;;;9180853;19;20010;-68
2022/09/21 02:43:21;;;;;;;3.20;2.13;;;8.80;73.90;;;;;;9180006;19;20048;-67
2022/09/21 02:46:30;;;;;;;4.38;2.00;;;8.80;74.00;;;;;;9180894;19;20026;-68
2022/09/21 02:49:39;;;;;;;3.90;2.00;;;8.80;74.00;;;;;;9180945;19;20475;-67
2022/09/21 02:52:44;;;;;;;3.53;1.90;;;8.70;74.00;;;;;;9178202;19;20022;-68
2022/09/21 02:55:48;;;;;;;2.58;1.90;;;8.70;74.00;;;;;;9180175;19;20375;-68
2022/09/21 02:59:03;;;;;;;2.72;1.65;;;8.70;74.10;;;;;;9180577;19;20496;-68
2022/09/21 03:02:07;;;;;;;2.40;1.80;;;8.60;74.00;;;;;;9175050;19;20468;-68
2022/09/21 03:05:14;;;;;;;3.45;2.05;;;8.60;74.10;;;;;;9179355;19;20014;-68
2022/09/21 03:08:19;;;;;;;5.15;1.98;;;8.60;74.10;;;;;;9178302;19;20043;-66
2022/09/21 03:11:22;;;;;;;3.03;2.03;;;8.60;74.10;;;;;;9178952;19;20065;-66
2022/09/21 03:14:26;;;;;;;2.53;1.38;;;8.60;74.10;;;;;;9179582;19;20097;-68
2022/09/21 03:17:30;;;;;;;1.95;1.50;;;8.50;74.10;;;;;;9179298;19;20010;-67
2022/09/21 03:20:36;;;;;;;3.10;1.67;;;8.50;74.10;;;;;;9179044;19;20036;-68
2022/09/21 03:23:39;;;;;;;2.95;1.52;;;8.50;74.20;;;;;;9176148;19;20468;-65
2022/09/21 03:26:44;;;;;;;1.35;1.20;;;8.50;74.80;;;;;;9179669;19;20350;-67
2022/09/21 03:29:47;;;;;;;;;;;8.50;74.20;;;;;;9179685;19;20091;-67
2022/09/21 03:32:51;;;;;;;1.87;1.60;;;8.40;74.10;;;;;;9174822;19;20321;-68
2022/09/21 03:35:57;;;;;;;3.97;1.30;;;8.40;74.00;;;;;;9179057;19;20011;-68
2022/09/21 03:39:00;;;;;;;2.25;1.50;;;8.40;74.10;;;;;;9178513;19;20844;-67
2022/09/21 03:42:06;;;;;;;1.48;1.38;;;8.40;74.10;;;;;;9177709;19;20085;-68
2022/09/21 03:45:12;;;;;;;4.10;1.83;;;8.40;74.20;;;;;;9175932;19;20078;-67
2022/09/21 03:48:15;;;;;;;2.03;1.20;;;8.30;74.10;;;;;;9178424;19;20523;-67
2022/09/21 03:51:21;;;;;;;1.65;1.30;;;8.30;74.20;;;;;;9177606;19;20018;-68
2022/09/21 03:54:25;;;;;;;3.38;1.50;;;8.30;74.20;;;;;;9177335;19;20078;-67
2022/09/21 03:57:29;;;;;;;1.75;1.25;;;8.20;74.20;;;;;;9178531;19;20074;-67
2022/09/21 04:00:33;;;;;;;5.40;1.50;;;8.20;74.20;;;;;;9172851;19;20515;-67
2022/09/21 04:03:37;;;;;;;1.52;1.10;;;8.20;74.20;;;;;;9177316;19;20101;-67
2022/09/21 04:06:45;;;;;;;1.67;1.45;;;8.20;74.20;;;;;;9177229;19;20007;-67
2022/09/21 04:09:48;;;;;;;2.25;1.60;;;8.20;74.30;;;;;;9174626;19;20031;-64
2022/09/21 04:12:52;;;;;;;3.97;1.77;;;8.10;74.20;;;;;;9176598;19;20074;-68
2022/09/21 04:15:56;;;;;;;3.47;1.92;;;8.10;74.30;;;;;;9185448;19;20022;-67
2022/09/21 04:18:59;;;;;;;6.20;2.58;;;8.10;74.30;;;;;;9183902;19;20732;-67
2022/09/21 04:22:05;;;;;;;7.15;2.38;;;8.10;74.40;;;;;;9185352;19;20011;-67
2022/09/21 04:25:11;;;;;;;5.00;2.75;;;8.00;74.30;;;;;;9185283;19;20021;-66
2022/09/21 04:28:15;;;;;;;4.70;3.05;;;8.00;74.40;;;;;;9184733;19;20030;-67
2022/09/21 04:31:19;;;;;;;4.32;2.28;;;8.00;74.40;;;;;;9184746;19;20089;-66
2022/09/21 04:34:22;;;;;;;;;;;8.00;74.40;;;;;;9183738;19;20010;-66
2022/09/21 04:37:28;;;;;;;3.53;2.40;;;8.00;74.40;;;;;;9185089;19;19911;-67
2022/09/21 04:40:31;;;;;;;3.83;2.60;;;7.90;74.20;;;;;;9182094;19;20375;-67
2022/09/21 04:43:35;;;;;;;4.82;2.85;;;7.90;74.30;;;;;;9182119;19;20014;-65
2022/09/21 04:46:39;;;;;;;11.98;3.17;;;7.90;74.30;;;;;;9183912;19;20014;-67
2022/09/21 04:49:43;;;;;;;8.40;2.97;;;7.90;74.40;;;;;;9184996;19;20050;-66
2022/09/21 04:52:48;;;;;;;7.97;3.33;;;7.90;74.40;;;;;;9183419;19;20070;-67
2022/09/21 04:55:52;;;;;;;6.47;2.92;;;7.90;74.50;;;;;;9182545;19;20086;-68
2022/09/21 04:58:56;;;;;;;7.13;3.35;;;7.90;75.10;;;;;;9182092;19;20373;-66
2022/09/21 05:01:59;;;;;;;7.57;2.90;;;7.90;74.50;;;;;;9179167;19;20078;-66
2022/09/21 05:05:03;;;;;;;8.07;2.88;;;7.80;74.50;;;;;;9183673;19;20026;-67
2022/09/21 05:08:08;;;;;;;10.50;2.63;;;7.80;74.60;;;;;;9183210;19;20088;-65
2022/09/21 05:11:13;;;;;;;6.53;2.92;;;7.80;74.60;;;;;;9184108;19;20035;-66
2022/09/21 05:14:17;;;;;;;5.18;2.58;;;7.80;74.60;;;;;;9182406;19;20022;-67
2022/09/21 05:17:21;;;;;;;6.57;2.75;;;7.80;74.60;;;;;;9183334;19;20394;-66
2022/09/21 05:20:25;;;;;;;5.93;3.53;;;7.80;74.60;;;;;;9182818;19;20478;-65
2022/09/21 05:23:32;;;;;;;4.75;3.00;;;7.80;74.70;;;;;;9182922;19;20014;-66
2022/09/21 05:26:35;;;;;;;5.88;3.83;;;7.70;74.70;;;;;;9183075;19;20093;-67
2022/09/21 05:29:40;;;;;;;6.28;3.67;;;7.70;74.70;;;;;;9182048;19;20120;-66
2022/09/21 05:32:48;;;;;;;5.28;3.22;;;7.70;74.70;;;;;;9181086;19;20078;-66
2022/09/21 05:36:03;;;;;;;5.53;2.90;;;7.70;74.80;;;;;;9183168;19;20023;-66
2022/09/21 05:39:10;;;;;;;9.82;3.28;;;7.70;74.80;;;;;;9182626;19;20007;-67
2022/09/21 05:42:14;;;;;;;6.53;3.65;;;7.70;74.80;;;;;;9182712;19;20023;-63
2022/09/21 05:45:20;;;;;;;7.25;3.45;;;7.70;74.80;;;;;;9182591;19;20523;-65
2022/09/21 05:48:29;;;;;;;4.00;2.97;;;7.70;74.90;;;;;;9183230;19;20014;-69
2022/09/21 05:51:40;;;;;;;10.07;3.83;;;7.60;74.80;;;;;;9182126;19;20015;-67
2022/09/21 05:54:59;;;;;;;5.45;3.05;;;7.70;74.90;;;;;;9182180;19;20015;-67
2022/09/21 05:58:11;;;;;;;5.80;2.90;;;7.60;74.90;;;;;;9181724;19;20060;-69
2022/09/21 06:01:28;;;;;;;6.88;2.70;;;7.70;75.00;;;;;;9173195;19;20483;-68
2022/09/21 06:04:33;;;;;;;9.27;3.47;;;7.70;75.00;;;;;;9181405;19;20014;-69
2022/09/21 06:07:36;;;;;;;9.52;3.05;;;7.70;75.00;;;;;;9180223;19;20038;-67
2022/09/21 06:10:42;;;;;;;4.93;2.72;;;7.70;75.10;;;;;;9176877;19;20018;-68
2022/09/21 06:13:46;;;;;;;5.85;3.38;;;7.70;75.10;;;;;;9170030;19;20146;-68
2022/09/21 06:16:50;;;;;;;5.85;3.42;;;7.70;75.00;;;;;;9175282;19;20033;-67
2022/09/21 06:19:53;;;;;;;5.40;3.33;;;7.70;75.00;;;;;;9167740;19;20022;-69
2022/09/21 06:23:01;;;;;;;10.00;3.85;;;7.70;75.00;;;;;;9166630;19;21647;-68
2022/09/21 06:26:07;;;;;;;7.00;3.92;;;7.70;75.10;;;;;;9173969;19;20051;-69
2022/09/21 06:29:11;;;;;;;5.93;3.47;;;7.70;75.10;;;;;;9167379;19;20021;-66
2022/09/21 06:32:14;;;;;;;6.72;3.28;;;7.70;75.10;;;;;;9168706;19;20519;-68
2022/09/21 06:35:18;;;;;;;7.95;3.90;;;7.80;75.20;;;;;;9167178;19;20463;-68
2022/09/21 06:38:22;;;;;;;8.85;3.95;;;7.70;75.20;;;;;;9173980;19;20014;-67
2022/09/21 06:41:28;;;;;;;5.70;3.53;;;7.80;75.30;;;;;;9171928;19;20015;-64
2022/09/21 06:44:31;;;;;;;8.27;3.67;;;7.80;75.40;;;;;;9171218;19;20090;-67
2022/09/21 06:47:35;;;;;;;6.00;3.35;;;7.80;75.30;;;;;;9177595;19;20018;-69
2022/09/21 06:50:39;;;;;;;9.95;4.13;;;7.80;75.40;;;;;;9179265;19;20042;-66
2022/09/21 06:53:42;;;;;;;7.47;3.20;;;7.80;75.40;;;;;;9168164;19;20376;-69
2022/09/21 06:56:48;;;;;;;8.52;4.25;;;7.90;75.50;;;;;;9167984;19;20029;-67
2022/09/21 06:59:51;;;;;;;6.40;4.18;;;8.00;75.60;;;;;;9177709;19;20082;-68
2022/09/21 07:02:55;;;;;;;12.55;3.97;;;8.00;75.60;;;;;;9170612;19;20602;-69
2022/09/21 07:05:59;;;;;;;9.73;4.25;;;8.10;75.70;;;;;;9177817;19;20097;-67
2022/09/21 07:09:03;;;;;;;7.35;4.30;;;8.10;75.70;;;;;;9170914;19;20019;-66
2022/09/21 07:12:29;;;;;;;9.55;4.53;;;8.20;75.80;;;;;;9172916;19;20022;-68
2022/09/21 07:15:33;;;;;;;7.65;4.55;;;8.30;75.90;;;;;;9179224;19;20022;-66
2022/09/21 07:18:37;;;;;;;6.75;3.47;;;8.30;76.00;;;;;;9177020;19;20020;-67
2022/09/21 07:21:47;;;;;;;8.88;4.25;;;8.40;76.20;;;;;;9170271;19;20445;-68
2022/09/21 07:24:50;;;;;;;5.95;4.10;;;8.50;76.20;;;;;;9175926;19;20140;-68
2022/09/21 07:27:56;;;;;;;11.65;5.55;;;8.50;76.30;;;;;;9169452;19;20055;-68
2022/09/21 07:31:00;;;;;;;13.90;5.70;;;8.70;76.50;;;;;;9174590;19;20070;-67
2022/09/21 07:34:03;;;;;;;;;;;8.80;76.60;;;;;;9167780;19;20019;-68
2022/09/21 07:37:07;;;;;;;11.00;5.47;;;8.90;76.60;;;;;;9176584;19;20313;-67
2022/09/21 07:40:11;;;;;;;8.18;5.13;;;9.00;76.40;;;;;;9170100;19;20049;-66
2022/09/21 07:43:17;;;;;;;11.25;5.28;;;9.10;76.60;;;;;;9172218;19;20015;-66
2022/09/21 07:46:21;;;;;;;9.38;5.72;;;9.20;76.80;;;;;;9178461;19;20355;-64
2022/09/21 07:49:25;;;;;;;10.13;5.53;;;9.40;76.90;;;;;;9182719;19;20025;-65
2022/09/21 07:52:28;;;;;;;11.63;5.65;;;9.50;77.10;;;;;;9180070;19;20025;-64
2022/09/21 07:55:32;;;;;;;15.05;5.28;;;9.70;77.20;;;;;;9182861;19;20018;-64
2022/09/21 08:01:55;;;;;;;11.77;5.38;;;10.10;77.40;;;;;;9175191;19;20424;-65
2022/09/21 08:04:59;;;;;;;12.60;6.00;;;10.40;77.50;;;;;;9174979;19;20014;-65
2022/09/21 08:08:03;;;;;;;17.70;5.30;;;10.50;77.50;;;;;;9176334;19;20015;-66
2022/09/21 08:11:07;;;;;;;;;;;10.80;77.90;;;;;;9180414;19;20112;-65
2022/09/21 08:14:18;;;;;;;11.57;4.13;;;11.10;77.60;;;;;;9171952;19;19951;-67
2022/09/21 08:17:29;;;;;;;13.48;5.28;;;11.30;77.20;;;;;;9172092;19;20471;-66
2022/09/21 08:20:33;;;;;;;16.33;5.38;;;11.60;77.40;;;;;;9173188;19;20038;-68
2022/09/21 08:23:39;;;;;;;15.13;4.38;;;11.80;77.40;;;;;;9171760;19;20014;-67
2022/09/21 08:26:43;;;;;;;13.40;4.88;;;12.10;77.60;;;;;;9171014;19;20463;-68
2022/09/21 08:29:48;;;;;;;10.82;4.57;;;12.40;77.60;;;;;;9175240;19;20543;-67
2022/09/21 08:32:55;;;;;;;10.93;3.80;;;12.70;77.60;;;;;;9172197;19;20486;-65
2022/09/21 08:36:01;;;;;;;16.55;4.20;;;12.90;77.50;;;;;;9169858;19;20022;-66
2022/09/21 08:39:07;;;;;;;7.93;3.20;;;13.30;77.40;;;;;;9171917;19;20029;-67
2022/09/21 08:42:27;;;;;;;8.07;3.13;;;13.60;77.30;;;;;;9172299;19;20167;-65
2022/09/21 08:45:35;;;;;;;7.25;3.13;;;13.80;77.20;;;;;;9170438;19;20022;-65
2022/09/21 08:48:44;;;;;;;8.02;3.20;;;14.20;77.20;;;;;;9173961;19;20019;-65
2022/09/21 08:51:52;;;;;;;9.35;2.70;;;14.40;76.90;;;;;;9173149;19;20018;-66
2022/09/21 08:54:59;;;;;;;9.65;2.70;;;14.70;76.70;;;;;;9172934;19;20370;-65
2022/09/21 08:58:03;;;;;;;8.55;1.65;;;15.00;76.60;;;;;;9172840;19;20022;-66
2022/09/21 09:01:31;;;;;;;8.50;2.17;;;15.30;76.40;;;;;;9165803;19;20363;-66
2022/09/21 09:04:53;;;;;;;8.20;1.92;;;15.60;76.20;;;;;;9173944;19;20077;-64
2022/09/21 09:08:19;;;;;;;14.02;2.45;;;15.90;75.90;;;;;;9176651;19;20094;-67
2022/09/21 09:11:42;;;;;;;7.40;2.35;;;16.10;75.50;;;;;;9171108;19;20014;-68
2022/09/21 09:15:06;;;;;;;6.30;1.65;;;16.40;75.30;;;;;;9172976;19;20376;-66
2022/09/21 09:18:19;;;;;;;8.30;1.42;;;16.60;75.00;;;;;;9172152;19;20077;-66
2022/09/21 09:21:27;;;;;;;12.02;2.17;;;16.90;74.80;;;;;;9169665;19;20019;-67
2022/09/21 09:24:42;;;;;;;6.30;1.70;;;17.10;74.60;;;;;;9168234;19;20019;-68
2022/09/21 09:27:48;;;;;;;9.75;1.90;;;17.30;74.20;;;;;;9168425;19;20035;-65
2022/09/21 09:30:59;;;;;;;9.90;1.80;;;17.50;74.10;;;;;;9168995;19;20081;-64
2022/09/21 09:34:13;;;;;;;5.15;1.40;;;17.80;73.70;;;;;;9170714;19;20024;-66
2022/09/21 09:37:18;;;;;;;6.80;1.88;;;18.00;73.30;;;;;;9173407;19;20018;-66
2022/09/21 09:40:34;;;;;;;6.65;1.95;;;18.20;73.20;;;;;;9168719;19;20487;-65
2022/09/21 09:43:50;;;;;;;7.05;1.60;;;18.40;72.80;;;;;;9173710;19;20018;-65
2022/09/21 09:47:05;;;;;;;7.97;1.55;;;18.60;72.40;;;;;;9168971;19;20078;-67
2022/09/21 09:50:19;;;;;;;7.03;1.55;;;18.70;72.00;;;;;;9169448;19;20029;-68
2022/09/21 09:53:25;;;;;;;9.40;1.58;;;18.80;71.80;;;;;;9171721;19;20017;-67
2022/09/21 09:56:30;;;;;;;12.70;1.75;;;19.00;71.80;;;;;;9166916;19;20033;-67
2022/09/21 09:59:37;;;;;;;5.60;1.70;;;19.10;71.50;;;;;;9169691;19;20018;-67
2022/09/21 10:02:48;;;;;;;9.00;1.85;;;19.30;71.30;;;;;;9160036;19;20021;-65
2022/09/21 10:05:57;;;;;;;5.40;1.25;;;19.40;70.80;;;;;;9170164;19;20031;-68
2022/09/21 10:09:01;;;;;;;10.55;1.55;;;19.50;70.60;;;;;;9168362;19;20126;-66
2022/09/21 10:12:19;;;;;;;5.72;1.58;;;19.60;70.40;;;;;;9172538;19;20024;-64
2022/09/21 10:15:25;;;;;;;5.95;1.30;;;19.60;69.70;;;;;;9174487;19;20383;-66
2022/09/21 10:18:36;;;;;;;7.78;1.55;;;19.70;69.80;;;;;;9173491;19;20048;-66
2022/09/21 10:21:45;;;;;;;10.68;1.20;;;19.70;69.40;;;;;;9168397;19;20030;-65
2022/09/21 10:24:57;;;;;;;6.35;1.35;;;19.80;69.40;;;;;;9168372;19;20034;-67
2022/09/21 10:28:02;;;;;;;5.65;1.50;;;19.90;69.50;;;;;;9165826;19;20018;-68
2022/09/21 10:31:12;;;;;;;7.88;1.25;;;20.00;69.10;;;;;;9168360;19;20695;-67
2022/09/21 10:34:17;;;;;;;9.13;1.50;;;20.10;68.60;;;;;;9166084;19;20494;-67
2022/09/21 10:37:32;;;;;;;5.38;1.30;;;20.20;68.60;;;;;;9171388;19;20019;-67
2022/09/21 10:40:38;;;;;;;5.95;1.25;;;20.20;68.00;;;;;;9174170;19;20521;-67
2022/09/21 10:43:43;;;;;;;11.32;2.03;;;20.30;68.10;;;;;;9166201;19;20055;-66
2022/09/21 10:46:48;;;;;;;9.63;1.42;;;20.40;67.80;;;;;;9168611;19;20037;-67
2022/09/21 10:49:55;;;;;;;5.70;1.27;;;20.50;67.60;;;;;;9163546;19;20014;-67
2022/09/21 10:53:14;;;;;;;6.97;1.25;;;20.60;67.30;;;;;;9166127;19;20018;-68
2022/09/21 10:56:19;;;;;;;5.18;1.25;;;20.70;66.70;;;;;;9167404;19;20015;-65
2022/09/21 10:59:25;;;;;;;6.82;1.40;;;20.80;66.90;;;;;;9171627;19;20040;-69
2022/09/21 11:02:37;;;;;;;6.15;1.33;;;20.90;66.50;;;;;;9164765;19;20019;-68
2022/09/21 11:05:44;;;;;;;10.57;1.75;;;21.00;66.10;;;;;;9167922;19;20026;-68
2022/09/21 11:08:55;;;;;;;6.88;1.38;;;21.10;66.00;;;;;;9168836;19;20028;-69
2022/09/21 11:12:04;;;;;;;5.47;1.23;;;21.20;65.60;;;;;;9172695;19;20042;-66
2022/09/21 11:15:21;;;;;;;10.68;2.05;;;21.30;65.60;;;;;;9168027;19;20025;-68
2022/09/21 11:18:37;;;;;;;4.38;0.90;;;21.40;65.10;;;;;;9170657;19;20014;-70
2022/09/21 11:21:45;;;;;;;7.07;1.30;;;21.50;64.70;;;;;;9171697;19;20015;-69
2022/09/21 11:24:59;;;;;;;13.20;2.35;;;21.60;64.80;;;;;;9180965;19;20521;-66
2022/09/21 11:28:12;;;;;;;3.95;1.25;;;21.70;64.40;;;;;;9179610;19;20018;-70
2022/09/21 11:31:47;;;;;;;2.67;1.02;;;21.80;64.30;;;;;;9178409;19;20549;-70
2022/09/21 11:35:18;;;;;;;5.25;0.98;;;21.90;63.50;;;;;;9174239;19;20006;-66
2022/09/21 11:38:35;;;;;;;5.55;0.90;;;22.10;63.40;;;;;;9176050;19;20094;-68
2022/09/21 11:42:07;;;;;;;5.18;0.90;;;22.20;63.30;;;;;;9180425;19;20018;-70
2022/09/21 11:45:31;;;;;;;7.00;1.25;;;22.40;62.80;;;;;;9178203;19;20721;-68
2022/09/21 11:48:52;;;;;;;7.28;0.75;;;22.50;62.50;;;;;;9178397;19;20025;-70
2022/09/21 11:52:19;;;;;;;4.07;1.00;;;22.50;62.20;;;;;;9179183;19;20022;-68
2022/09/21 11:55:43;;;;;;;5.03;0.73;;;22.60;61.80;;;;;;9179937;19;20098;-68
2022/09/21 11:58:57;;;;;;;5.28;0.90;;;22.60;61.50;;;;;;9179322;19;20086;-68
2022/09/21 12:02:22;;;;;;;2.63;0.88;;;22.60;61.70;;;;;;9173928;19;20010;-69
2022/09/21 12:05:33;;;;;;;4.47;0.88;;;22.50;61.30;;;;;;9177310;19;20014;-67
2022/09/21 12:08:54;;;;;;;6.18;0.80;;;22.50;61.40;;;;;;9175426;19;20035;-67
2022/09/21 12:12:06;;;;;;;3.22;0.73;;;22.50;60.90;;;;;;9171937;19;20082;-64
2022/09/21 12:15:21;;;;;;;3.47;1.00;;;22.60;61.00;;;;;;9173203;19;20078;-69
2022/09/21 12:18:31;;;;;;;5.25;1.00;;;22.60;60.70;;;;;;9179102;19;20018;-69
2022/09/21 12:21:39;;;;;;;2.55;0.82;;;22.60;61.20;;;;;;9179589;19;20593;-69
2022/09/21 12:24:47;;;;;;;3.72;0.60;;;22.60;60.50;;;;;;9179127;19;20037;-68
2022/09/21 12:27:55;;;;;;;6.57;0.80;;;22.60;60.40;;;;;;9180313;19;20021;-70
2022/09/21 12:31:06;;;;;;;4.13;0.80;;;22.70;60.20;;;;;;9184966;19;20464;-69
2022/09/21 12:34:17;;;;;;;3.13;0.68;;;22.70;59.90;;;;;;9178451;19;20021;-69
2022/09/21 12:37:26;;;;;;;3.55;0.85;;;22.70;59.70;;;;;;9176391;19;20090;-69
2022/09/21 12:40:37;;;;;;;3.42;0.80;;;22.70;59.60;;;;;;9174110;19;20040;-67
2022/09/21 12:43:45;;;;;;;2.95;0.52;;;22.70;59.40;;;;;;9175550;19;20026;-69
2022/09/21 12:47:07;;;;;;;2.22;0.70;;;22.80;59.20;;;;;;9168852;19;20026;-67
2022/09/21 12:50:20;;;;;;;3.78;0.80;;;22.80;58.90;;;;;;9172028;19;20045;-67
2022/09/21 12:53:26;;;;;;;6.10;0.93;;;22.80;58.70;;;;;;9170153;19;20030;-68
2022/09/21 12:56:37;;;;;;;4.82;0.77;;;22.80;58.60;;;;;;9171278;19;20022;-69
2022/09/21 12:59:50;;;;;;;3.38;0.75;;;22.80;58.20;;;;;;9170779;19;20074;-65
2022/09/21 13:03:00;;;;;;;5.28;0.70;;;22.70;58.20;;;;;;9167140;19;20022;-67
2022/09/21 13:06:28;;;;;;;4.82;1.08;;;22.70;58.10;;;;;;9169495;19;20019;-66
2022/09/21 13:09:32;;;;;;;9.57;1.10;;;22.60;57.80;;;;;;9165283;19;20082;-67
2022/09/21 13:12:43;;;;;;;7.55;1.38;;;22.50;58.10;;;;;;9170485;19;20049;-68
2022/09/21 13:15:49;;;;;;;5.97;1.02;;;22.40;57.80;;;;;;9169581;19;20369;-68
2022/09/21 13:19:00;;;;;;;3.30;0.95;;;22.30;57.80;;;;;;9172307;19;20042;-64
2022/09/21 13:22:23;;;;;;;6.55;1.02;;;22.30;57.80;;;;;;9170323;19;20018;-63
2022/09/21 13:25:33;;;;;;;8.30;1.05;;;22.10;57.50;;;;;;9165862;19;20022;-68
2022/09/21 13:29:03;;;;;;;4.88;1.00;;;22.00;57.80;;;;;;9170897;19;20022;-69
2022/09/21 13:32:24;;;;;;;7.32;0.98;;;21.80;57.40;;;;;;9176270;19;20402;-67
2022/09/21 13:36:01;;;;;;;2.92;0.88;;;21.70;57.40;;;;;;9173047;19;20022;-68
2022/09/21 13:39:15;;;;;;;5.78;1.50;;;21.60;57.40;;;;;;9169093;19;20051;-68
2022/09/21 13:42:46;;;;;;;3.88;0.80;;;21.50;57.50;;;;;;9168457;19;20082;-68
2022/09/21 13:45:56;;;;;;;4.00;1.02;;;21.30;57.40;;;;;;9167588;19;20045;-66
2022/09/21 13:49:03;;;;;;;6.10;0.75;;;21.20;57.80;;;;;;9169845;19;20022;-68
2022/09/21 13:52:22;;;;;;;8.80;1.33;;;21.10;57.90;;;;;;9174578;19;20037;-68
2022/09/21 13:55:29;;;;;;;5.07;0.98;;;21.10;57.80;;;;;;9167402;19;20094;-68
2022/09/21 13:58:36;;;;;;;12.02;1.40;;;21.00;57.80;;;;;;9169156;19;20018;-66
2022/09/21 14:01:40;;;;;;;3.25;0.90;;;21.00;57.70;;;;;;9166223;19;20709;-67
2022/09/21 14:04:52;;;;;;;2.97;0.93;;;20.90;57.60;;;;;;9173467;19;20397;-69
2022/09/21 14:08:01;;;;;;;4.38;1.10;;;20.90;57.60;;;;;;9173425;19;20022;-67
2022/09/21 14:11:08;;;;;;;5.28;0.98;;;20.80;57.30;;;;;;9173820;19;20026;-67
2022/09/21 14:14:21;;;;;;;3.45;0.95;;;20.80;57.50;;;;;;9171349;19;20018;-67
2022/09/21 14:17:39;;;;;;;2.45;0.88;;;20.70;57.30;;;;;;9173763;19;20118;-67
2022/09/21 14:21:16;;;;;;;4.13;1.02;;;20.70;57.10;;;;;;9175319;19;20047;-67
2022/09/21 14:24:22;;;;;;;4.18;0.80;;;20.60;57.00;;;;;;9173914;19;20018;-67
2022/09/21 14:27:29;;;;;;;5.60;1.40;;;20.60;57.40;;;;;;9171613;19;20018;-66
2022/09/21 14:30:36;;;;;;;5.80;1.38;;;20.50;57.30;;;;;;9172578;19;20082;-66
2022/09/21 14:33:46;;;;;;;3.38;1.42;;;20.50;57.30;;;;;;9168304;19;20019;-66
2022/09/21 14:36:56;;;;;;;5.22;1.25;;;20.40;57.10;;;;;;9163901;19;20484;-67
2022/09/21 14:40:04;;;;;;;7.88;1.33;;;20.40;57.20;;;;;;9171182;19;20089;-67
2022/09/21 14:43:12;;;;;;;3.28;0.60;;;20.30;57.20;;;;;;9172210;19;20022;-68
2022/09/21 14:46:44;;;;;;;2.58;0.85;;;20.30;57.20;;;;;;9167572;19;20019;-68
2022/09/21 14:50:08;;;;;;;8.77;3.13;;;20.20;57.00;;;;;;9173051;19;20671;-67
2022/09/21 14:53:44;;;;;;;10.25;4.88;;;20.10;57.00;;;;;;9172375;19;20023;-67
2022/09/21 14:57:00;;;;;;;6.63;1.17;;;20.10;57.00;;;;;;9163613;19;20043;-67
2022/09/21 15:00:22;;;;;;;6.68;1.15;;;20.00;57.10;;;;;;9169252;19;20085;-69
2022/09/21 15:03:52;;;;;;;4.10;0.80;;;20.00;57.00;;;;;;9173112;19;20054;-68
2022/09/21 15:14:20;;;;;;;5.00;1.00;;;19.90;57.20;;;;;;9167652;19;20876;-67
2022/09/21 15:17:27;;;;;;;6.53;1.02;;;19.90;56.80;;;;;;9172998;19;20056;-65
2022/09/21 15:20:32;;;;;;;3.47;0.73;;;19.90;57.10;;;;;;9172791;19;20020;-68
2022/09/21 15:23:40;;;;;;;3.15;0.85;;;19.90;57.10;;;;;;9173255;19;20015;-69
2022/09/21 15:26:47;;;;;;;6.43;1.00;;;19.90;57.00;;;;;;9169514;19;20133;-69
2022/09/21 15:29:52;;;;;;;4.55;0.70;;;19.90;57.00;;;;;;9166602;19;20119;-68
2022/09/21 15:32:58;;;;;;;3.28;1.02;;;19.90;56.90;;;;;;9166451;19;20516;-67
2022/09/21 15:36:02;;;;;;;3.25;0.47;;;19.90;56.80;;;;;;9173858;19;20378;-69
2022/09/21 15:39:08;;;;;;;4.32;0.65;;;19.90;56.80;;;;;;9178689;19;20077;-68
2022/09/21 15:42:21;;;;;;;2.92;0.60;;;19.80;56.80;;;;;;9178628;19;20015;-68
2022/09/21 15:45:27;;;;;;;2.88;0.70;;;19.80;56.60;;;;;;9178471;19;20022;-69
2022/09/21 15:48:33;;;;;;;3.80;1.17;;;19.70;56.70;;;;;;9178316;19;20011;-69
2022/09/21 15:51:43;;;;;;;3.95;1.33;;;19.70;56.70;;;;;;9177741;19;20026;-70
2022/09/21 15:54:51;;;;;;;6.78;1.70;;;19.70;56.60;;;;;;9173375;19;20038;-70
2022/09/21 15:57:58;;;;;;;3.40;0.70;;;19.60;56.60;;;;;;9177619;19;20018;-69
2022/09/21 16:01:02;;;;;;;5.45;1.00;;;19.60;56.50;;;;;;9172899;19;20082;-69
2022/09/21 16:04:06;;;;;;;;;;;19.50;56.60;;;;;;9178474;19;20475;-69
2022/09/21 16:07:25;;;;;;;;;;;19.40;56.70;;;;;;9177504;19;20337;-69
2022/09/21 16:10:41;;;;;;;4.53;1.23;;;19.40;57.70;;;;;;9179918;19;19915;-68
2022/09/21 16:17:07;;;;;;;5.53;1.30;;;19.30;57.00;;;;;;9185332;19;20018;-70
2022/09/21 16:20:22;;;;;;;2.03;0.90;;;19.20;57.00;;;;;;9185150;19;20010;-68
2022/09/21 16:23:31;;;;;;;5.38;1.13;;;19.10;56.90;;;;;;9185982;19;20011;-69
2022/09/21 16:26:37;;;;;;;5.32;1.27;;;19.10;56.90;;;;;;9185342;19;20025;-70
2022/09/21 16:29:47;;;;;;;3.15;0.70;;;19.00;56.90;;;;;;9184041;19;20060;-68
2022/09/21 16:32:51;;;;;;;5.80;0.85;;;19.00;56.90;;;;;;9184998;19;20099;-70
2022/09/21 16:35:55;;;;;;;6.15;1.05;;;18.90;56.90;;;;;;9184247;19;20074;-68
2022/09/21 16:38:59;;;;;;;6.38;1.38;;;18.90;57.00;;;;;;9183914;19;20041;-68
2022/09/21 16:42:05;;;;;;;4.45;1.33;;;18.90;57.00;;;;;;9184985;19;20018;-69
2022/09/21 16:45:21;;;;;;;7.53;1.73;;;18.80;56.90;;;;;;9184005;19;20018;-70
2022/09/21 16:48:25;;;;;;;5.30;1.30;;;18.70;56.80;;;;;;9184520;19;20124;-70